Time;durP1;ratioP1;P1;durP2;ratioP2;P2;SDS_P1;SDS_P2;PMS_P1;PMS_P2;Temp;Humidity;BMP_temperature;BMP_pressure;BME280_temperature;BME280_humidity;BME280_pressure;Samples;Min_cycle;Max_cycle;Signal;HPM_P1;HPM_P2
2023/02/09 00:01:32;;;;;;;;;86.00;64.25;;;;;3.11;95.69;102908.38;5013461;27;45508;-73
2023/02/09 00:03:58;;;;;;;;;90.50;63.75;;;;;3.16;95.61;102916.53;5013127;28;45466;-73
2023/02/09 00:06:25;;;;;;;;;82.00;65.50;;;;;3.11;95.53;102905.75;5013611;28;46566;-73
2023/02/09 00:08:51;;;;;;;;;86.00;63.00;;;;;3.12;95.91;102901.44;5017937;28;45453;-73
2023/02/09 00:13:21;;;;;;;;;80.00;62.75;;;;;3.17;95.98;102909.63;5020243;28;45306;-73
2023/02/09 00:14:10;;;;;;;;;87.25;63.00;;;;;3.11;96.20;102899.63;5013530;27;45331;-72
2023/02/09 00:16:36;;;;;;;;;86.00;64.75;;;;;3.13;96.13;102903.25;5012578;28;47656;-72
2023/02/09 00:19:01;;;;;;;;;92.25;65.25;;;;;3.11;96.30;102912.69;5011010;28;45438;-72
2023/02/09 00:21:26;;;;;;;;;85.50;63.75;;;;;3.10;96.34;102897.81;5013150;28;45422;-73
2023/02/09 00:23:52;;;;;;;;;84.50;64.25;;;;;3.08;96.34;102904.63;5012398;28;55162;-72
2023/02/09 00:26:17;;;;;;;;;90.00;63.25;;;;;3.06;96.27;102911.44;5011058;28;47416;-73
2023/02/09 00:28:42;;;;;;;;;69.25;56.50;;;;;2.99;96.39;102889.19;5013289;28;63641;-73
2023/02/09 00:31:10;;;;;;;;;86.25;66.00;;;;;2.97;96.39;102895.97;5011741;28;49383;-74
2023/02/09 00:33:36;;;;;;;;;83.25;59.75;;;;;2.99;96.34;102896.13;5013285;28;45421;-72
2023/02/09 00:36:06;;;;;;;;;84.50;65.00;;;;;2.97;95.58;102902.91;5009535;28;46239;-74
2023/02/09 00:38:32;;;;;;;;;75.75;59.75;;;;;2.90;95.39;102893.72;5012314;28;45715;-75
2023/02/09 00:40:58;;;;;;;;;87.25;62.00;;;;;2.91;94.58;102905.06;5004795;28;45482;-74
2023/02/09 00:43:23;;;;;;;;;82.50;61.75;;;;;2.83;94.26;102891.47;5012567;28;53247;-75
2023/02/09 00:45:48;;;;;;;;;81.50;62.50;;;;;2.79;94.57;102890.31;5158775;22;61327;-74
2023/02/09 00:48:14;;;;;;;;;91.00;64.25;;;;;2.82;93.79;102900.03;5013337;28;59594;-75
2023/02/09 00:50:39;;;;;;;;;90.50;64.75;;;;;2.80;94.37;102897.34;5012665;28;47488;-74
2023/02/09 00:53:04;;;;;;;;;91.00;67.75;;;;;2.75;94.90;102903.00;5011041;28;53277;-75
2023/02/09 00:55:30;;;;;;;;;83.75;64.75;;;;;2.80;95.09;102912.06;5012016;28;56722;-74
2023/02/09 00:57:55;;;;;;;;;77.75;59.50;;;;;2.75;95.62;102903.91;5011995;27;58407;-73
2023/02/09 01:00:20;;;;;;;;;84.25;64.75;;;;;2.75;95.23;102910.81;5011625;28;53238;-72
2023/02/09 01:02:46;;;;;;;;;88.25;64.75;;;;;2.73;95.25;102894.16;5010931;28;45463;-72
2023/02/09 01:05:11;;;;;;;;;81.00;62.25;;;;;2.71;94.84;102885.28;5012075;28;46288;-72
2023/02/09 01:07:37;;;;;;;;;95.75;67.75;;;;;2.69;94.96;102900.84;5011439;28;45966;-73
2023/02/09 01:10:03;;;;;;;;;85.25;63.25;;;;;2.72;95.00;102908.91;5011777;28;45547;-73
2023/02/09 01:12:29;;;;;;;;;86.75;67.25;;;;;2.67;95.02;102902.44;5012477;28;45240;-72
2023/02/09 01:14:55;;;;;;;;;87.25;65.50;;;;;2.72;95.18;102903.69;5012455;28;46622;-72
2023/02/09 01:17:20;;;;;;;;;90.50;66.75;;;;;2.71;95.89;102898.34;5012038;28;45448;-72
2023/02/09 01:19:50;;;;;;;;;84.50;62.75;;;;;2.73;96.24;102896.75;5011070;28;45660;-73
2023/02/09 01:22:15;;;;;;;;;87.75;63.75;;;;;2.73;95.78;102896.75;5011728;28;45558;-72
2023/02/09 01:24:41;;;;;;;;;83.50;63.25;;;;;2.70;95.73;102888.69;5011666;28;46302;-73
2023/02/09 01:27:06;;;;;;;;;83.75;65.50;;;;;2.71;95.48;102901.84;5008556;28;62085;-73
2023/02/09 01:29:31;;;;;;;;;81.75;60.00;;;;;2.71;95.88;102913.97;5009393;28;51686;-73
2023/02/09 01:31:57;;;;;;;;;80.50;64.25;;;;;2.63;95.44;102906.50;5011735;28;45572;-75
2023/02/09 01:34:22;;;;;;;;;89.00;63.00;;;;;2.65;95.50;102911.81;5010200;28;60195;-74
2023/02/09 01:36:47;;;;;;;;;89.75;63.50;;;;;2.68;95.75;102914.66;5011470;28;45561;-74
2023/02/09 01:39:13;;;;;;;;;82.00;60.50;;;;;2.67;95.64;102920.69;5018437;28;45444;-73
2023/02/09 01:41:39;;;;;;;;;78.50;58.75;;;;;2.65;95.99;102905.69;5016693;28;45471;-75
2023/02/09 01:44:15;;;;;;;;;85.00;61.25;;;;;2.69;96.54;102915.56;5010379;28;46374;-74
2023/02/09 01:46:40;;;;;;;;;87.00;61.25;;;;;2.63;96.82;102902.97;5014168;28;45472;-75
2023/02/09 01:49:10;;;;;;;;;78.75;59.25;;;;;2.67;96.61;102899.81;5013718;28;51737;-74
2023/02/09 01:51:39;;;;;;;;;81.75;60.75;;;;;2.65;96.62;102901.38;5012758;28;45550;-73
2023/02/09 01:54:11;;;;;;;;;82.25;58.25;;;;;2.58;96.49;102892.19;5013208;28;47523;-74
2023/02/09 01:56:38;;;;;;;;;81.50;61.25;;;;;2.62;96.82;102903.78;5012971;28;45480;-74
2023/02/09 01:59:03;;;;;;;;;82.25;59.50;;;;;2.62;96.83;102912.50;5013081;28;45462;-75
2023/02/09 02:01:29;;;;;;;;;79.50;58.75;;;;;2.61;97.27;102905.47;5013377;28;45371;-73
2023/02/09 02:03:54;;;;;;;;;80.25;58.25;;;;;2.62;97.72;102904.69;5010005;28;45752;-73
2023/02/09 02:06:20;;;;;;;;;72.25;55.25;;;;;2.57;97.93;102908.63;5013917;28;45485;-75
2023/02/09 02:08:55;;;;;;;;;82.00;62.75;;;;;2.62;98.03;102919.41;5018162;28;45395;-75
2023/02/09 02:11:23;;;;;;;;;82.00;58.00;;;;;2.58;98.26;102913.06;5015765;28;45390;-73
2023/02/09 02:13:49;;;;;;;;;82.50;61.25;;;;;2.55;98.37;102914.50;5014051;28;47626;-73
2023/02/09 02:16:20;;;;;;;;;76.50;58.00;;;;;2.61;98.55;102926.34;5012318;28;55243;-74
2023/02/09 02:18:59;;;;;;;;;77.00;56.00;;;;;2.61;98.06;102920.22;5010595;28;45386;-74
2023/02/09 02:21:27;;;;;;;;;71.50;53.50;;;;;2.61;98.79;102926.34;5013708;28;45530;-72
2023/02/09 02:24:17;;;;;;;;;82.50;60.75;;;;;2.63;98.61;102927.34;5014363;28;46436;-75
2023/02/09 02:27:00;;;;;;;;;79.25;56.00;;;;;2.64;98.88;102923.03;5013874;27;45625;-74
2023/02/09 02:30:02;;;;;;;;;72.25;52.50;;;;;2.66;99.48;102936.19;5014082;28;47255;-74
2023/02/09 02:32:41;;;;;;;;;75.75;53.00;;;;;2.67;99.45;102935.44;5010026;28;45339;-75
2023/02/09 02:35:26;;;;;;;;;70.00;51.25;;;;;2.68;99.02;102939.84;5008765;28;47051;-74
2023/02/09 02:38:03;;;;;;;;;72.75;50.50;;;;;2.66;98.61;102923.16;5011197;28;45393;-73
2023/02/09 02:40:54;;;;;;;;;71.00;50.50;;;;;2.69;98.90;102928.63;5008895;28;45523;-75
2023/02/09 02:43:37;;;;;;;;;77.75;57.00;;;;;2.68;98.36;102937.25;5013313;28;45356;-72
2023/02/09 02:46:25;;;;;;;;;74.75;55.50;;;;;2.66;97.63;102923.16;5017332;27;46447;-74
2023/02/09 02:48:59;;;;;;;;;69.75;52.25;;;;;2.65;97.66;102926.56;5015632;28;45375;-75
2023/02/09 02:51:45;;;;;;;;;72.75;51.25;;;;;2.62;97.81;102917.72;5012828;27;45387;-72
2023/02/09 02:54:17;;;;;;;;;58.25;47.75;;;;;2.61;98.20;102920.22;5009231;28;45378;-75
2023/02/09 02:56:46;;;;;;;;;66.75;52.50;;;;;2.61;98.05;102920.22;5012709;28;47684;-75
2023/02/09 02:59:17;;;;;;;;;70.50;47.25;;;;;2.60;98.25;102913.16;5018843;28;45899;-72
2023/02/09 03:01:48;;;;;;;;;69.00;54.75;;;;;2.59;97.95;102924.38;5019923;28;45550;-72
2023/02/09 03:04:15;;;;;;;;;73.25;52.25;;;;;2.52;97.43;102904.75;5016933;28;45492;-72
2023/02/09 03:06:40;;;;;;;;;76.25;55.25;;;;;2.56;97.25;102917.25;5018235;28;47499;-73
2023/02/09 03:09:06;;;;;;;;;72.25;56.75;;;;;2.48;97.18;102900.09;5015740;28;48860;-74
2023/02/09 03:11:38;;;;;;;;;66.25;53.00;;;;;2.51;96.68;102917.69;5013877;28;55562;-72
2023/02/09 03:14:06;;;;;;;;;68.75;51.50;;;;;2.51;96.71;102929.03;5012376;28;45670;-74
2023/02/09 03:16:37;;;;;;;;;69.00;51.50;;;;;2.50;97.48;102934.09;5012296;27;46626;-72
2023/02/09 03:19:21;;;;;;;;;69.00;52.75;;;;;2.48;97.63;102926.16;5016651;27;45510;-73
2023/02/09 03:22:12;;;;;;;;;66.75;52.00;;;;;2.50;98.19;102913.25;5018980;28;45350;-72
2023/02/09 03:24:59;;;;;;;;;74.00;51.50;;;;;2.52;98.49;102920.41;5015604;28;45803;-73
2023/02/09 03:27:28;;;;;;;;;75.75;53.25;;;;;2.53;97.75;102932.66;5011133;28;47072;-73
2023/02/09 03:29:59;;;;;;;;;59.00;46.50;;;;;2.45;97.24;102906.75;5016408;28;46057;-73
2023/02/09 03:32:26;;;;;;;;;72.25;52.75;;;;;2.50;97.14;102923.66;5009693;28;45454;-73
2023/02/09 03:34:52;;;;;;;;;78.25;54.50;;;;;2.47;96.81;102926.06;5016119;28;45414;-73
2023/02/09 03:37:18;;;;;;;;;68.50;51.50;;;;;2.42;96.57;102901.34;5018712;28;46520;-73
2023/02/09 03:39:43;;;;;;;;;61.00;48.75;;;;;2.34;96.83;102891.22;5013031;28;45619;-73
2023/02/09 03:42:08;;;;;;;;;66.00;53.75;;;;;2.39;96.81;102914.13;5012445;28;55076;-72
2023/02/09 03:44:34;;;;;;;;;66.00;50.75;;;;;2.36;97.11;102902.69;5013464;28;48108;-73
2023/02/09 03:47:01;;;;;;;;;64.75;49.25;;;;;2.36;97.56;102904.38;5011518;28;45801;-73
2023/02/09 03:49:33;;;;;;;;;69.00;49.25;;;;;2.31;97.88;102898.81;5012270;28;45370;-73
2023/02/09 03:51:59;;;;;;;;;66.25;47.75;;;;;2.21;97.54;102882.34;5010453;28;45528;-73
2023/02/09 03:54:26;;;;;;;;;71.25;49.75;;;;;2.33;97.29;102907.63;5020563;28;45389;-73
2023/02/09 03:56:51;;;;;;;;;62.75;49.00;;;;;2.27;96.77;102901.06;5016500;28;46791;-73
2023/02/09 03:59:17;;;;;;;;;69.25;50.50;;;;;2.26;96.55;102913.19;5013309;28;56228;-73
2023/02/09 04:01:42;;;;;;;;;65.50;48.50;;;;;2.18;96.39;102906.44;5015701;28;47572;-73
2023/02/09 04:04:08;;;;;;;;;67.00;51.25;;;;;2.23;96.23;102925.03;5012902;28;56926;-73
2023/02/09 04:06:34;;;;;;;;;67.50;49.00;;;;;2.22;96.73;102915.41;5009340;28;46162;-73
2023/02/09 04:09:00;;;;;;;;;59.50;48.50;;;;;2.21;97.11;102905.78;5013198;28;45438;-73
2023/02/09 04:11:25;;;;;;;;;60.00;47.50;;;;;2.21;97.91;102898.88;5022303;28;45321;-73
2023/02/09 04:13:51;;;;;;;;;58.25;46.50;;;;;2.21;97.70;102892.75;5012839;28;51948;-73
2023/02/09 04:16:19;;;;;;;;;68.50;51.00;;;;;2.14;97.59;102878.34;5004744;28;66170;-73
2023/02/09 04:18:45;;;;;;;;;62.50;45.50;;;;;2.13;97.58;102886.97;5012779;28;45399;-73
2023/02/09 04:21:11;;;;;;;;;66.75;48.75;;;;;2.18;97.39;102888.19;5012837;28;45547;-73
2023/02/09 04:23:36;;;;;;;;;53.25;45.50;;;;;2.15;96.39;102889.69;5013526;28;45455;-73
2023/02/09 04:26:02;;;;;;;;;64.00;46.50;;;;;2.13;96.50;102886.97;5008231;28;46219;-73
2023/02/09 04:28:27;;;;;;;;;68.00;48.25;;;;;2.10;96.62;102895.44;5013269;28;45550;-73
2023/02/09 04:30:54;;;;;;;;;67.50;46.00;;;;;2.06;96.55;102882.94;5013056;28;45483;-73
2023/02/09 04:33:20;;;;;;;;;60.50;47.25;;;;;2.04;97.47;102870.59;5013332;28;45561;-73
2023/02/09 04:35:47;;;;;;;;;57.75;47.50;;;;;2.04;97.84;102868.91;5012261;28;46905;-73
2023/02/09 04:38:18;;;;;;;;;57.75;44.25;;;;;2.05;98.13;102878.53;5013142;28;45496;-73
2023/02/09 04:40:44;;;;;;;;;65.50;47.25;;;;;2.13;97.89;102888.63;5012737;28;45360;-73
2023/02/09 04:43:09;;;;;;;;;59.25;46.00;;;;;2.10;97.69;102886.72;5013341;28;45634;-73
2023/02/09 04:45:37;;;;;;;;;57.50;44.00;;;;;2.06;96.78;102869.91;5011844;28;45753;-73
2023/02/09 04:48:03;;;;;;;;;65.00;46.50;;;;;2.00;96.64;102851.22;5011815;28;45497;-73
2023/02/09 04:50:28;;;;;;;;;61.00;46.50;;;;;2.00;96.74;102851.22;5012964;27;45639;-74
2023/02/09 04:52:53;;;;;;;;;56.50;45.25;;;;;2.02;97.22;102853.91;5016114;28;56317;-73
2023/02/09 04:55:19;;;;;;;;;58.25;46.50;;;;;1.98;97.39;102868.44;5016763;28;52640;-73
2023/02/09 05:00:28;;;;;;;;;70.25;47.25;;;;;2.07;98.90;102907.31;5015174;28;45362;-73
2023/02/09 05:02:53;;;;;;;;;70.25;48.75;;;;;2.00;98.17;102900.72;5011575;28;55607;-73
2023/02/09 05:05:19;;;;;;;;;60.50;48.75;;;;;2.08;99.11;102917.88;5012826;28;45357;-73
2023/02/09 05:07:45;;;;;;;;;59.50;48.50;;;;;2.18;99.21;102927.28;5011971;28;45383;-73
2023/02/09 05:10:10;;;;;;;;;62.75;48.75;;;;;2.19;99.75;102936.94;5012430;28;45294;-74
2023/02/09 05:12:35;;;;;;;;;69.75;50.50;;;;;2.22;99.65;102933.66;5011465;28;46908;-73
2023/02/09 05:15:01;;;;;;;;;67.75;51.50;;;;;2.24;99.08;102929.50;5012311;28;45700;-73
2023/02/09 05:17:26;;;;;;;;;64.50;51.00;;;;;2.24;99.23;102934.72;5012297;28;52308;-73
2023/02/09 05:19:51;;;;;;;;;71.75;49.50;;;;;2.23;98.23;102940.69;5010241;28;53367;-73
2023/02/09 05:22:17;;;;;;;;;64.00;49.00;;;;;2.16;98.69;102936.69;5014654;28;45425;-73
2023/02/09 05:24:42;;;;;;;;;66.25;48.50;;;;;2.19;98.23;102936.94;5015206;28;46221;-73
2023/02/09 05:27:08;;;;;;;;;69.50;49.75;;;;;2.16;98.68;102925.38;5014866;28;45171;-73
2023/02/09 05:29:33;;;;;;;;;68.25;48.75;;;;;2.16;97.95;102930.59;5014040;27;53690;-73
2023/02/09 05:31:58;;;;;;;;;65.75;48.50;;;;;2.14;98.20;102924.34;5020499;27;45338;-74
2023/02/09 05:34:24;;;;;;;;;68.50;49.25;;;;;2.13;98.28;102932.94;5014036;28;62329;-73
2023/02/09 05:36:49;;;;;;;;;60.00;41.50;;;;;2.10;98.85;102917.97;5014229;28;60688;-73
2023/02/09 05:39:14;;;;;;;;;61.75;49.50;;;;;2.08;98.19;102919.56;5014837;28;55959;-73
2023/02/09 05:44:23;;;;;;;;;62.25;52.00;;;;;2.04;97.46;102935.75;5011247;28;45212;-73
2023/02/09 05:46:49;;;;;;;;;65.50;49.00;;;;;2.01;97.37;102932.88;5011895;28;45342;-74
2023/02/09 05:49:14;;;;;;;;;67.00;51.50;;;;;1.93;96.84;102927.06;5016314;28;45297;-75
2023/02/09 05:51:39;;;;;;;;;58.00;46.50;;;;;1.93;96.67;102933.97;5013510;28;45764;-74
2023/02/09 05:54:05;;;;;;;;;68.00;47.25;;;;;1.92;96.81;102926.94;5012757;28;46699;-75
2023/02/09 05:56:30;;;;;;;;;70.00;50.50;;;;;1.90;97.54;102925.91;5013341;28;53992;-75
2023/02/09 05:58:56;;;;;;;;;61.25;46.50;;;;;1.86;98.11;102916.94;5014959;28;45413;-73
2023/02/09 06:01:21;;;;;;;;;68.25;50.50;;;;;1.91;97.83;102927.72;5014543;27;45323;-73
2023/02/09 06:03:46;;;;;;;;;64.50;49.00;;;;;1.84;97.39;102921.13;5013741;28;62396;-73
2023/02/09 06:06:12;;;;;;;;;72.00;52.50;;;;;1.84;97.41;102934.16;5009562;28;50910;-75
2023/02/09 06:08:37;;;;;;;;;55.50;45.50;;;;;1.81;97.78;102928.69;5014037;28;58313;-73
2023/02/09 06:11:04;;;;;;;;;70.00;52.00;;;;;1.80;97.55;102919.97;5014484;28;45567;-75
2023/02/09 06:13:30;;;;;;;;;67.00;47.50;;;;;1.84;97.29;102942.88;5013353;28;46556;-73
2023/02/09 06:15:55;;;;;;;;;50.00;45.00;;;;;1.81;97.54;102940.03;5017556;28;45493;-74
2023/02/09 06:18:21;;;;;;;;;54.00;45.50;;;;;1.78;98.19;102933.66;5010463;28;51209;-73
2023/02/09 06:20:46;;;;;;;;;53.75;45.00;;;;;1.78;97.80;102931.97;5013310;28;51119;-74
2023/02/09 06:23:12;;;;;;;;;54.50;45.00;;;;;1.83;98.20;102942.75;5024072;28;57954;-74
2023/02/09 06:25:38;;;;;;;;;62.50;48.50;;;;;1.84;97.76;102954.97;5012409;28;46690;-74
2023/02/09 06:28:04;;;;;;;;;67.50;45.75;;;;;1.80;98.00;102959.03;5010137;27;45613;-75
2023/02/09 06:30:29;;;;;;;;;59.25;48.00;;;;;1.77;97.93;102937.97;5011945;27;45490;-74
2023/02/09 06:32:55;;;;;;;;;66.75;48.25;;;;;1.82;98.08;102956.56;5012442;27;45759;-74
2023/02/09 06:35:20;;;;;;;;;68.50;50.00;;;;;1.83;98.00;102958.38;5017046;28;59509;-74
2023/02/09 06:37:45;;;;;;;;;69.25;47.25;;;;;1.78;97.79;102950.19;5012807;28;56456;-72
2023/02/09 06:40:11;;;;;;;;;62.50;46.25;;;;;1.80;97.73;102965.94;5016848;28;53251;-74
2023/02/09 06:42:42;;;;;;;;;60.75;46.50;;;;;1.80;98.26;102964.25;5008717;28;47607;-75
2023/02/09 06:45:13;;;;;;;;;64.75;47.00;;;;;1.81;98.86;102967.75;5012216;28;46444;-74
2023/02/09 06:47:43;;;;;;;;;70.00;48.75;;;;;1.85;99.38;102972.44;5005674;27;45517;-74
2023/02/09 06:50:09;;;;;;;;;63.75;50.00;;;;;1.87;99.69;102975.19;5007893;27;45397;-74
2023/02/09 06:52:34;;;;;;;;;65.00;48.50;;;;;1.87;99.19;102975.19;5016267;28;46662;-74
2023/02/09 06:55:00;;;;;;;;;73.50;49.25;;;;;1.85;98.85;102980.25;5012019;28;60778;-74
2023/02/09 06:57:25;;;;;;;;;62.00;48.50;;;;;1.77;98.95;102974.44;5018462;28;45540;-74
2023/02/09 06:59:50;;;;;;;;;66.75;51.25;;;;;1.80;98.17;102990.28;5020444;27;49544;-74
2023/02/09 07:02:16;;;;;;;;;63.00;44.00;;;;;1.73;97.99;102977.56;5013285;28;65537;-74
2023/02/09 07:04:41;;;;;;;;;66.00;49.50;;;;;1.72;97.91;102980.06;5013327;28;56527;-74
2023/02/09 07:07:06;;;;;;;;;56.75;49.00;;;;;1.72;98.38;102969.63;5012295;27;52424;-74
2023/02/09 07:09:32;;;;;;;;;67.25;49.75;;;;;1.77;98.20;102990.06;5003368;27;52505;-75
2023/02/09 07:11:58;;;;;;;;;58.50;47.00;;;;;1.77;98.97;102976.13;5011171;28;45599;-73
2023/02/09 07:14:23;;;;;;;;;63.75;48.25;;;;;1.74;100.00;102981.97;5012007;27;47196;-75
2023/02/09 07:16:48;;;;;;;;;60.00;47.75;;;;;1.49;100.00;102975.56;5002702;28;55550;-73
2023/02/09 07:19:14;;;;;;;;;68.75;53.00;;;;;1.17;100.00;102970.28;5002238;27;45473;-74
2023/02/09 07:21:39;;;;;;;;;55.00;46.50;;;;;0.97;100.00;102971.25;5012751;28;45656;-74
2023/02/09 07:24:05;;;;;;;;;66.25;51.00;;;;;0.91;100.00;102981.16;5010097;28;46413;-73
2023/02/09 07:26:30;;;;;;;;;57.50;48.50;;;;;0.96;100.00;102990.22;5013029;27;45498;-71
2023/02/09 07:28:55;;;;;;;;;64.75;47.00;;;;;0.89;100.00;102977.47;5010473;28;55967;-72
2023/02/09 07:31:21;;;;;;;;;50.00;41.50;;;;;1.07;100.00;103004.16;5009265;28;59241;-73
2023/02/09 07:33:46;;;;;;;;;67.50;53.00;;;;;1.07;100.00;102986.84;5008648;27;45431;-71
2023/02/09 07:36:13;;;;;;;;;68.00;52.00;;;;;1.10;100.00;102987.09;5000423;28;45632;-72
2023/02/09 07:38:39;;;;;;;;;67.25;50.75;;;;;1.31;100.00;103011.38;4997078;28;45213;-72
2023/02/09 07:41:06;;;;;;;;;79.50;54.25;;;;;1.40;100.00;103022.56;5004337;28;46191;-72
2023/02/09 07:43:32;;;;;;;;;71.75;52.75;;;;;1.46;100.00;103017.88;5015640;27;45485;-72
2023/02/09 07:46:04;;;;;;;;;67.25;51.75;;;;;1.53;100.00;103022.78;5012665;28;45427;-72
2023/02/09 07:48:30;;;;;;;;;68.50;49.50;;;;;1.60;100.00;103023.28;5011693;28;45480;-73
2023/02/09 07:50:56;;;;;;;;;78.25;53.75;;;;;1.64;100.00;103025.38;5012065;28;45532;-73
2023/02/09 07:53:21;;;;;;;;;74.75;57.75;;;;;1.69;100.00;103032.78;5016047;28;45590;-73
2023/02/09 07:55:46;;;;;;;;;78.75;56.75;;;;;1.69;100.00;103022.34;5019271;28;45449;-73
2023/02/09 07:58:13;;;;;;;;;73.75;56.00;;;;;1.75;100.00;103021.94;5013574;28;45280;-72
2023/02/09 08:00:39;;;;;;;;;69.00;52.25;;;;;1.81;100.00;103032.84;5020680;28;46393;-73
2023/02/09 08:03:04;;;;;;;;;70.25;54.75;;;;;1.92;100.00;103049.38;5013154;28;45296;-73
2023/02/09 08:05:34;;;;;;;;;80.25;58.00;;;;;1.91;100.00;103045.84;5012457;28;47317;-73
2023/02/09 08:08:00;;;;;;;;;75.00;58.25;;;;;2.00;100.00;103057.03;5015860;28;45416;-73
2023/02/09 08:10:25;;;;;;;;;74.25;56.50;;;;;2.06;100.00;103054.00;5012149;28;56950;-72
2023/02/09 08:12:58;;;;;;;;;76.25;56.75;;;;;2.10;100.00;103069.13;5011159;28;45597;-73
2023/02/09 08:15:28;;;;;;;;;84.75;60.25;;;;;2.16;100.00;103073.91;5010947;28;45205;-73
2023/02/09 08:17:56;;;;;;;;;81.25;63.00;;;;;2.20;100.00;103081.19;5013360;28;45316;-73
2023/02/09 08:20:25;;;;;;;;;87.75;60.75;;;;;2.28;100.00;103088.81;5011559;28;46455;-73
2023/02/09 08:22:53;;;;;;;;;91.50;66.50;;;;;2.33;100.00;103082.28;5011989;28;45515;-73
2023/02/09 08:25:20;;;;;;;;;86.75;64.25;;;;;2.37;100.00;103070.41;5013011;28;45439;-73
2023/02/09 08:27:46;;;;;;;;;85.00;61.50;;;;;2.46;100.00;103084.19;5010843;28;45576;-73
2023/02/09 08:30:13;;;;;;;;;85.75;63.75;;;;;2.51;100.00;103080.25;5006082;28;46649;-73
2023/02/09 08:32:39;;;;;;;;;66.50;47.00;;;;;2.58;100.00;103087.78;5006910;28;45549;-73
2023/02/09 08:35:05;;;;;;;;;81.00;60.00;;;;;2.68;100.00;103094.63;5006786;28;45969;-73
2023/02/09 08:37:30;;;;;;;;;87.50;66.00;;;;;2.69;100.00;103092.94;5012919;28;45543;-73
2023/02/09 08:39:55;;;;;;;;;77.50;56.00;;;;;2.73;100.00;103095.00;5012098;28;47930;-73
2023/02/09 08:42:21;;;;;;;;;88.50;60.25;;;;;2.85;100.00;103106.41;5011643;28;51732;-73
2023/02/09 08:44:46;;;;;;;;;87.00;57.50;;;;;2.83;100.00;103095.84;5010022;28;50104;-73
2023/02/09 08:47:11;;;;;;;;;84.25;61.00;;;;;2.91;100.00;103108.56;5012843;28;52553;-73
2023/02/09 08:49:37;;;;;;;;;89.25;63.00;;;;;2.96;100.00;103104.63;5011588;28;62001;-73
2023/02/09 08:52:02;;;;;;;;;86.50;65.00;;;;;3.08;100.00;103114.31;5009998;28;45479;-73
2023/02/09 08:54:28;;;;;;;;;88.00;62.25;;;;;3.08;100.00;103106.47;5016457;28;45436;-73
2023/02/09 08:56:53;;;;;;;;;94.25;65.75;;;;;3.20;100.00;103131.75;5018704;28;52026;-73
2023/02/09 08:59:18;;;;;;;;;84.75;63.50;;;;;3.24;100.00;103125.94;5015882;28;55291;-73
2023/02/09 09:01:44;;;;;;;;;89.50;63.25;;;;;3.32;100.00;103136.19;5012892;28;45374;-73
2023/02/09 09:04:09;;;;;;;;;88.75;66.00;;;;;3.30;100.00;103111.69;5015709;28;57263;-73
2023/02/09 09:06:35;;;;;;;;;82.75;61.00;;;;;3.27;100.00;103114.06;5013661;28;45587;-73
2023/02/09 09:09:01;;;;;;;;;89.50;64.50;;;;;3.46;100.00;103129.41;5013758;28;46603;-73
2023/02/09 09:11:26;;;;;;;;;87.75;63.25;;;;;3.48;100.00;103129.56;5013463;28;53954;-73
2023/02/09 09:13:52;;;;;;;;;81.50;59.00;;;;;3.54;100.00;103130.00;5025207;28;45380;-73
2023/02/09 09:16:19;;;;;;;;;75.00;58.25;;;;;3.66;100.00;103142.28;5021072;28;56182;-73
2023/02/09 09:18:45;;;;;;;;;76.25;57.25;;;;;3.70;100.00;103132.09;5012699;28;45482;-73
2023/02/09 09:21:15;;;;;;;;;83.25;59.50;;;;;3.76;100.00;103128.22;5013237;28;45261;-73
2023/02/09 09:23:41;;;;;;;;;81.75;61.50;;;;;3.78;100.00;103128.34;5011134;28;45501;-73
2023/02/09 09:26:07;;;;;;;;;77.75;58.00;;;;;3.84;100.00;103124.50;5011699;28;46631;-73
2023/02/09 09:28:32;;;;;;;;;70.00;53.25;;;;;3.85;100.00;103114.97;5011634;28;46138;-73
2023/02/09 09:31:04;;;;;;;;;88.25;63.00;;;;;3.92;100.00;103125.97;5010132;28;56389;-73
2023/02/09 09:33:30;;;;;;;;;77.00;58.00;;;;;3.93;100.00;103119.03;5010198;28;45609;-73
2023/02/09 09:35:58;;;;;;;;;84.00;59.50;;;;;3.98;100.00;103116.75;5010858;28;45504;-73
2023/02/09 09:38:24;;;;;;;;;81.50;58.00;;;;;4.05;100.00;103114.75;5012310;28;47706;-73
2023/02/09 09:40:49;;;;;;;;;64.75;50.50;;;;;4.04;100.00;103098.91;5011250;28;55794;-73
2023/02/09 09:43:31;;;;;;;;;77.25;53.50;;;;;4.16;100.00;103115.53;5008713;28;50148;-73
2023/02/09 09:45:57;;;;;;;;;75.00;56.75;;;;;4.18;100.00;103109.59;5010125;28;45436;-73
2023/02/09 09:48:24;;;;;;;;;69.75;54.00;;;;;4.28;100.00;103112.91;5010039;28;64239;-73
2023/02/09 09:50:55;;;;;;;;;71.50;51.50;;;;;4.31;100.00;103111.41;5011020;28;45441;-73
2023/02/09 09:53:31;;;;;;;;;48.00;40.50;;;;;4.43;100.00;103104.47;5012517;28;45339;-73
2023/02/09 09:56:00;;;;;;;;;58.50;42.00;;;;;4.50;100.00;103113.66;5016409;28;45389;-73
2023/02/09 09:58:26;;;;;;;;;55.25;42.75;;;;;4.57;100.00;103115.00;5015146;28;47296;-73
2023/02/09 10:00:53;;;;;;;;;51.25;41.00;;;;;4.57;100.00;103108.06;5020617;27;45487;-73
2023/02/09 10:03:20;;;;;;;;;48.25;40.00;;;;;4.69;100.00;103110.66;5015555;28;45487;-70
2023/02/09 10:05:48;;;;;;;;;61.75;48.75;;;;;4.74;100.00;103117.13;5015746;28;45551;-73
2023/02/09 10:08:51;;;;;;;;;63.25;47.00;;;;;4.81;100.00;103123.72;5019344;28;46262;-73
2023/02/09 10:11:21;;;;;;;;;50.00;44.75;;;;;4.87;100.00;103127.66;5022004;28;45451;-73
2023/02/09 10:13:50;;;;;;;;;75.00;54.00;;;;;4.93;100.00;103129.81;5014988;28;45357;-73
2023/02/09 10:16:29;;;;;;;;;61.75;47.50;;;;;4.92;99.90;103133.22;5014847;28;45568;-73
2023/02/09 10:18:56;;;;;;;;;51.00;43.25;;;;;5.02;99.51;103120.00;5014006;27;47287;-73
2023/02/09 10:21:24;;;;;;;;;50.50;43.75;;;;;5.07;99.14;103139.53;5015009;28;45244;-73
2023/02/09 10:24:08;;;;;;;;;54.50;42.50;;;;;5.12;98.54;103129.41;5014721;28;45260;-73
2023/02/09 10:26:35;;;;;;;;;54.75;38.00;;;;;5.14;98.56;103123.44;5012196;27;45499;-73
2023/02/09 10:29:09;;;;;;;;;47.75;40.25;;;;;5.24;98.09;103122.38;5012449;28;47739;-73
2023/02/09 10:31:39;;;;;;;;;47.00;40.00;;;;;5.26;97.78;103112.91;5011128;28;45522;-73
2023/02/09 10:34:07;;;;;;;;;38.00;33.00;;;;;5.33;97.41;103125.66;5013987;28;45484;-73
2023/02/09 10:36:36;;;;;;;;;50.75;39.25;;;;;5.34;97.54;103106.50;5014683;28;45551;-73
2023/02/09 10:39:10;;;;;;;;;52.50;38.50;;;;;5.44;97.24;103118.53;5012647;27;47270;-73
2023/02/09 10:41:37;;;;;;;;;42.50;35.25;;;;;5.49;97.22;103119.75;5014304;28;45384;-74
2023/02/09 10:44:23;;;;;;;;;46.00;39.25;;;;;5.56;97.23;103124.59;5014329;28;45451;-73
2023/02/09 10:46:50;;;;;;;;;41.25;34.75;;;;;5.57;96.54;103110.69;5017981;28;45210;-73
2023/02/09 10:49:27;;;;;;;;;31.25;26.50;;;;;5.66;95.71;103119.19;5015459;28;45756;-73
2023/02/09 10:52:05;;;;;;;;;37.50;28.75;;;;;5.73;95.51;103108.28;5011976;28;45476;-73
2023/02/09 10:54:30;;;;;;;;;32.25;24.25;;;;;5.73;95.25;103089.03;5017207;28;45480;-73
2023/02/09 10:56:56;;;;;;;;;44.50;36.25;;;;;5.77;95.54;103081.50;5013725;28;49910;-73
2023/02/09 10:59:24;;;;;;;;;48.00;32.00;;;;;5.82;94.97;103078.28;5012906;28;63171;-71
2023/02/09 11:02:03;;;;;;;;;47.75;32.50;;;;;5.90;95.59;103082.28;5018344;28;45489;-71
2023/02/09 11:04:36;;;;;;;;;37.25;30.00;;;;;5.99;95.15;103090.81;5013242;28;45465;-73
2023/02/09 11:07:08;;;;;;;;;44.50;37.25;;;;;6.09;94.40;103101.09;5012339;28;45491;-73
2023/02/09 11:09:35;;;;;;;;;42.50;35.00;;;;;6.18;94.64;103099.09;5012629;28;46523;-73
2023/02/09 11:12:01;;;;;;;;;52.75;31.50;;;;;6.19;93.77;103084.25;5012393;27;45330;-74
2023/02/09 11:14:27;;;;;;;;;48.75;38.75;;;;;6.32;93.53;103075.44;5045916;27;45499;-74
2023/02/09 11:17:05;;;;;;;;;51.00;40.25;;;;;6.44;93.74;103076.22;5039933;27;56265;-74
2023/02/09 11:19:52;;;;;;;;;54.75;39.50;;;;;6.48;93.46;103075.59;5031847;27;47646;-73
2023/02/09 11:22:26;;;;;;;;;46.50;38.50;;;;;6.59;94.13;103092.94;5035339;27;45413;-73
2023/02/09 11:24:58;;;;;;;;;45.50;37.00;;;;;6.65;93.61;103088.06;5025949;27;45408;-73